createdAt,value
2023-02-09T11:49:04.152Z,26.19
2023-02-09T11:50:10.608Z,27.81
2023-02-09T11:51:20.201Z,26.88
2023-02-09T11:52:36.386Z,26.35
2023-02-09T11:54:03.917Z,26.61
2023-02-09T11:55:25.397Z,27.73
2023-02-09T11:56:28.873Z,28.28
2023-02-09T11:57:36.145Z,27.83
2023-02-09T11:58:59.838Z,26.85
2023-02-09T12:00:05.426Z,26.83
2023-02-09T12:01:26.494Z,26.65
2023-02-09T12:03:01.318Z,27.11
2023-02-09T12:04:12.877Z,27.53
2023-02-09T12:05:19.340Z,27.98
2023-02-09T12:06:23.171Z,27.28
2023-02-09T12:07:56.521Z,27.30
2023-02-09T12:09:35.504Z,26.84
2023-02-09T12:11:11.780Z,26.07
2023-02-09T12:12:33.036Z,26.07
2023-02-09T12:14:09.561Z,26.40
2023-02-09T12:15:15.678Z,25.94
2023-02-09T12:16:31.123Z,26.65
2023-02-09T12:17:38.819Z,27.03
2023-02-09T12:18:42.291Z,26.92
2023-02-09T12:19:46.445Z,26.14
2023-02-09T12:20:54.419Z,26.53
2023-02-09T12:21:56.378Z,26.99
2023-02-09T12:23:01.971Z,27.20
2023-02-09T12:24:26.920Z,27.21
2023-02-09T12:25:51.414Z,26.75
2023-02-09T12:26:57.032Z,26.26
2023-02-09T12:28:13.362Z,25.80
2023-02-09T12:29:35.437Z,26.41
2023-02-09T12:30:39.935Z,25.91
2023-02-09T12:32:04.018Z,24.74
2023-02-09T12:33:24.511Z,26.86
2023-02-09T12:34:35.317Z,27.88
2023-02-09T12:35:40.906Z,28.17
2023-02-09T12:37:12.335Z,26.65
2023-02-09T12:38:19.600Z,26.49
2023-02-09T12:39:24.376Z,26.55
2023-02-09T12:40:36.277Z,26.36
2023-02-09T12:41:39.575Z,25.92
2023-02-09T12:42:45.020Z,25.43
2023-02-09T12:43:47.835Z,25.46
2023-02-09T12:44:58.041Z,25.22
2023-02-09T12:46:28.624Z,24.97
2023-02-09T12:47:55.943Z,24.90
2023-02-09T12:49:09.820Z,24.81
2023-02-09T12:50:44.132Z,24.91
2023-02-09T12:51:54.673Z,25.51
2023-02-09T12:53:32.484Z,25.13
2023-02-09T12:54:58.263Z,24.93
2023-02-09T12:56:03.025Z,25.82
2023-02-09T12:57:16.738Z,25.70
2023-02-09T12:58:54.366Z,26.09
2023-02-09T12:59:56.808Z,26.04
2023-02-09T13:00:58.903Z,26.26
2023-02-09T13:02:12.656Z,26.37
2023-02-09T13:03:19.402Z,26.68
2023-02-09T13:04:23.207Z,26.39
2023-02-09T13:05:39.716Z,25.91
2023-02-09T13:06:49.683Z,26.60
2023-02-09T13:08:16.470Z,26.50
2023-02-09T13:09:34.623Z,26.71
2023-02-09T13:10:48.772Z,26.80
2023-02-09T13:11:56.499Z,26.38
2023-02-09T13:13:06.541Z,26.29
2023-02-09T13:14:14.577Z,25.97
2023-02-09T13:15:19.108Z,26.57
2023-02-09T13:16:29.957Z,26.52
2023-02-09T13:18:07.094Z,26.42
2023-02-09T13:19:20.634Z,25.85
2023-02-09T13:21:06.021Z,25.76
2023-02-09T13:22:35.515Z,24.78
2023-02-09T13:24:01.121Z,25.54
2023-02-09T13:25:32.501Z,25.36
2023-02-09T13:26:51.918Z,24.47
2023-02-09T13:27:53.702Z,24.27
2023-02-09T13:29:20.489Z,24.59
2023-02-09T13:30:31.977Z,24.88
2023-02-09T13:31:42.977Z,24.67
2023-02-09T13:32:56.869Z,26.37
2023-02-09T13:34:14.432Z,25.56
2023-02-09T13:35:38.292Z,26.03
2023-02-09T13:37:00.433Z,26.63
2023-02-09T13:38:16.811Z,26.85
2023-02-09T13:39:26.676Z,27.73
2023-02-09T13:40:32.494Z,28.21
2023-02-09T13:41:40.993Z,27.48
2023-02-09T13:43:01.788Z,26.68
2023-02-09T13:44:03.848Z,26.44
2023-02-09T13:45:17.444Z,27.03
2023-02-09T13:46:28.286Z,26.46
2023-02-09T13:47:30.265Z,26.17
2023-02-09T13:48:35.150Z,25.74
2023-02-09T13:49:36.933Z,25.83
2023-02-09T13:50:47.322Z,26.48
2023-02-09T13:52:12.077Z,26.41
2023-02-09T13:53:18.044Z,26.72
2023-02-09T13:54:20.697Z,26.29
2023-02-09T13:55:26.079Z,26.49
2023-02-09T13:56:29.648Z,25.86
2023-02-09T13:57:37.183Z,25.90
2023-02-09T13:58:40.269Z,25.68
2023-02-09T13:59:42.755Z,26.37
2023-02-09T14:00:58.056Z,26.25
2023-02-09T14:02:19.517Z,26.24
2023-02-09T14:04:23.124Z,25.68
2023-02-09T14:06:13.535Z,25.67
2023-02-09T14:07:16.689Z,25.75
2023-02-09T14:08:20.418Z,26.16
2023-02-09T14:09:29.356Z,25.96
2023-02-09T14:10:33.951Z,26.06
2023-02-09T14:12:03.961Z,26.01
2023-02-09T14:13:23.537Z,25.92
2023-02-09T14:14:51.973Z,25.59
2023-02-09T14:16:08.919Z,26.11
2023-02-09T14:17:25.618Z,26.09
2023-02-09T14:18:31.501Z,26.44
2023-02-09T14:19:33.774Z,26.13
2023-02-09T14:20:40.114Z,26.97
2023-02-09T14:21:44.889Z,27.89
2023-02-09T14:22:56.737Z,29.13
2023-02-09T14:24:00.139Z,29.29
2023-02-09T14:25:29.326Z,28.93
2023-02-09T14:26:43.259Z,28.27
2023-02-09T14:27:48.265Z,27.82
2023-02-09T14:29:15.702Z,27.69
2023-02-09T14:30:26.645Z,28.42
2023-02-09T14:31:34.284Z,29.28
2023-02-09T14:32:47.939Z,29.91
2023-02-09T14:33:53.512Z,29.99
2023-02-09T14:34:59.448Z,29.46
2023-02-09T14:36:03.971Z,29.08
2023-02-09T14:37:18.607Z,29.55
2023-02-09T14:38:42.901Z,28.99
2023-02-09T14:40:04.905Z,29.00
2023-02-09T14:41:43.553Z,28.90
2023-02-09T14:43:22.798Z,28.43
2023-02-09T14:44:26.319Z,27.99
2023-02-09T14:45:31.555Z,27.84
2023-02-09T14:47:03.171Z,27.82
2023-02-09T14:48:26.466Z,27.20
2023-02-09T14:49:29.570Z,27.75
2023-02-09T14:50:33.687Z,27.33
2023-02-09T14:51:44.262Z,27.23
2023-02-09T14:52:49.579Z,27.36
2023-02-09T14:53:51.320Z,27.38
2023-02-09T14:54:53.206Z,27.45
2023-02-09T14:56:00.935Z,26.99
2023-02-09T14:57:03.936Z,27.42
2023-02-09T14:58:27.725Z,27.75
2023-02-09T14:59:29.792Z,28.33
2023-02-09T15:00:34.010Z,28.06
2023-02-09T15:01:35.806Z,27.65
2023-02-09T15:02:37.898Z,28.30
2023-02-09T15:03:40.006Z,28.81
2023-02-09T15:04:42.498Z,30.00
2023-02-09T15:05:45.972Z,30.39
2023-02-09T15:06:52.105Z,29.73
2023-02-09T15:07:59.555Z,29.65
2023-02-09T15:09:02.895Z,29.76
2023-02-09T15:10:13.744Z,29.02
2023-02-09T15:11:42.836Z,29.13
2023-02-09T15:12:47.816Z,29.27
2023-02-09T15:13:56.159Z,29.44
2023-02-09T15:15:02.509Z,28.74
2023-02-09T15:16:04.890Z,28.62
2023-02-09T15:17:19.084Z,28.76
2023-02-09T15:18:26.957Z,29.12
2023-02-09T15:19:28.648Z,28.87
2023-02-09T15:20:31.850Z,28.86
2023-02-09T15:21:33.952Z,28.64
2023-02-09T15:22:38.660Z,28.74
2023-02-09T15:23:41.126Z,29.13
2023-02-09T15:24:44.873Z,30.22
2023-02-09T15:25:46.957Z,30.61
2023-02-09T15:26:50.412Z,31.15
2023-02-09T15:28:01.078Z,31.70
2023-02-09T15:29:09.943Z,32.00
2023-02-09T15:30:23.253Z,32.67
2023-02-09T15:31:28.941Z,33.96
2023-02-09T15:32:31.047Z,34.39
2023-02-09T15:33:33.997Z,34.65
2023-02-09T15:34:35.938Z,35.08
2023-02-09T15:35:40.861Z,35.33
2023-02-09T15:36:43.196Z,36.07
2023-02-09T15:37:51.580Z,36.54
2023-02-09T15:38:54.929Z,36.64
2023-02-09T15:40:01.824Z,36.63
2023-02-09T15:41:22.023Z,36.90
2023-02-09T15:42:42.680Z,37.63
2023-02-09T15:44:03.015Z,37.69
2023-02-09T15:45:35.207Z,38.69
2023-02-09T15:46:56.268Z,38.82
2023-02-09T15:47:59.669Z,38.81
2023-02-09T15:49:01.770Z,39.43
2023-02-09T15:50:04.174Z,40.18
2023-02-09T15:51:05.992Z,40.45
2023-02-09T15:52:08.593Z,41.18
2023-02-09T15:53:15.506Z,41.76
2023-02-09T15:54:25.260Z,42.81
2023-02-09T15:55:32.367Z,43.00
2023-02-09T15:56:36.785Z,43.59
2023-02-09T15:57:40.316Z,44.41
2023-02-09T15:58:45.528Z,45.13
2023-02-09T15:59:50.691Z,45.72
2023-02-09T16:00:52.325Z,46.26
2023-02-09T16:01:55.746Z,46.64
2023-02-09T16:03:06.243Z,47.09
2023-02-09T16:04:15.377Z,47.83
2023-02-09T16:05:18.342Z,47.75
2023-02-09T16:06:26.011Z,47.69
2023-02-09T16:07:28.779Z,49.01
2023-02-09T16:08:33.659Z,49.04
2023-02-09T16:09:36.246Z,49.14
2023-02-09T16:10:38.317Z,49.42
2023-02-09T16:11:41.202Z,49.12
2023-02-09T16:12:43.336Z,49.96
2023-02-09T16:13:48.905Z,50.80
2023-02-09T16:14:53.097Z,50.59
2023-02-09T16:16:00.302Z,51.11
2023-02-09T16:17:09.878Z,51.66
2023-02-09T16:18:12.177Z,51.94
2023-02-09T16:19:14.556Z,52.63
2023-02-09T16:20:19.920Z,52.76
2023-02-09T16:21:33.957Z,52.92
2023-02-09T16:22:39.076Z,53.68
2023-02-09T16:23:41.235Z,54.50
2023-02-09T16:24:45.938Z,55.04
2023-02-09T16:25:53.376Z,54.83
2023-02-09T16:26:57.852Z,55.34
2023-02-09T16:28:00.761Z,54.91
2023-02-09T16:29:02.576Z,54.41
2023-02-09T16:30:15.694Z,53.62
2023-02-09T16:31:19.540Z,53.00
2023-02-09T16:32:23.282Z,52.88
2023-02-09T16:33:26.827Z,52.78
2023-02-09T16:34:28.684Z,52.80
2023-02-09T16:35:31.433Z,53.38
2023-02-09T16:36:35.394Z,53.79
2023-02-09T16:37:37.234Z,54.08
2023-02-09T16:38:39.208Z,54.32
2023-02-09T16:39:41.539Z,54.67
2023-02-09T16:40:43.567Z,55.04
2023-02-09T16:41:53.720Z,55.49
2023-02-09T16:42:59.057Z,54.84
2023-02-09T16:44:05.029Z,55.01
2023-02-09T16:45:17.868Z,55.58
2023-02-09T16:46:20.688Z,55.72
2023-02-09T16:47:26.762Z,56.12
2023-02-09T16:48:31.448Z,56.36
2023-02-09T16:49:39.045Z,56.98
2023-02-09T16:50:45.198Z,56.43
2023-02-09T16:51:48.380Z,56.73
2023-02-09T16:52:54.371Z,57.43
2023-02-09T16:53:57.661Z,57.39
2023-02-09T16:55:05.826Z,58.27
2023-02-09T16:56:15.709Z,59.05
2023-02-09T16:57:23.577Z,59.17
2023-02-09T16:58:26.933Z,59.56
2023-02-09T16:59:29.809Z,60.22
2023-02-09T17:00:37.982Z,61.07
2023-02-09T17:01:40.250Z,61.91
2023-02-09T17:02:53.391Z,62.72
2023-02-09T17:03:56.641Z,63.21
2023-02-09T17:04:59.389Z,63.69
2023-02-09T17:06:02.691Z,64.35
2023-02-09T17:07:05.232Z,64.79
2023-02-09T17:08:33.019Z,64.58
2023-02-09T17:09:35.308Z,64.75
2023-02-09T17:10:37.214Z,64.61
2023-02-09T17:11:41.289Z,65.09
2023-02-09T17:12:43.956Z,64.68
2023-02-09T17:13:46.319Z,65.04
2023-02-09T17:14:51.026Z,65.48
2023-02-09T17:15:55.670Z,65.43
2023-02-09T17:16:57.408Z,65.36
2023-02-09T17:18:09.111Z,66.56
2023-02-09T17:19:15.386Z,66.91
2023-02-09T17:20:21.100Z,66.79
2023-02-09T17:21:35.210Z,67.10
2023-02-09T17:22:37.082Z,67.42
2023-02-09T17:23:39.189Z,67.81
2023-02-09T17:24:42.065Z,67.70
2023-02-09T17:25:44.898Z,67.58
2023-02-09T17:26:47.072Z,67.25
2023-02-09T17:27:50.494Z,67.08
2023-02-09T17:28:52.588Z,66.80
2023-02-09T17:29:54.302Z,66.68
2023-02-09T17:30:58.729Z,67.32
2023-02-09T17:32:03.017Z,67.11
2023-02-09T17:33:08.527Z,67.62
2023-02-09T17:34:15.834Z,67.68
2023-02-09T17:35:44.599Z,67.88
2023-02-09T17:36:46.415Z,68.40
2023-02-09T17:37:49.487Z,69.17
2023-02-09T17:38:53.861Z,69.37
2023-02-09T17:39:56.717Z,69.58
2023-02-09T17:41:02.408Z,69.98
2023-02-09T17:42:04.247Z,71.27
2023-02-09T17:43:06.402Z,71.60
2023-02-09T17:44:39.683Z,72.02
2023-02-09T17:45:49.050Z,72.40
2023-02-09T17:46:52.487Z,72.46
2023-02-09T17:47:57.991Z,72.47
2023-02-09T17:49:00.100Z,72.65
2023-02-09T17:50:02.340Z,72.87
2023-02-09T17:51:06.953Z,73.27
2023-02-09T17:52:21.228Z,73.27
2023-02-09T17:53:26.379Z,72.80
2023-02-09T17:54:34.500Z,72.64
2023-02-09T17:55:38.582Z,71.89
2023-02-09T17:56:40.945Z,72.19
2023-02-09T17:57:46.039Z,72.53
2023-02-09T17:58:48.083Z,72.76
2023-02-09T17:59:51.004Z,73.27
2023-02-09T18:00:56.628Z,73.76
2023-02-09T18:02:01.291Z,73.95
2023-02-09T18:03:03.433Z,73.96
2023-02-09T18:04:05.807Z,73.81
2023-02-09T18:05:08.224Z,73.97
2023-02-09T18:06:15.265Z,73.92
2023-02-09T18:07:20.886Z,73.89
2023-02-09T18:08:23.008Z,73.70
2023-02-09T18:09:25.904Z,73.08
2023-02-09T18:10:31.332Z,72.99
2023-02-09T18:11:45.229Z,73.30
2023-02-09T18:12:50.640Z,73.28
2023-02-09T18:13:53.785Z,73.32
2023-02-09T18:14:55.988Z,73.79
2023-02-09T18:15:57.949Z,73.90
2023-02-09T18:17:00.384Z,73.99
2023-02-09T18:18:04.427Z,74.32
2023-02-09T18:19:06.662Z,74.55
2023-02-09T18:20:15.150Z,74.85
2023-02-09T18:21:17.041Z,75.43
2023-02-09T18:22:23.070Z,76.38
2023-02-09T18:23:27.679Z,76.20
2023-02-09T18:24:32.931Z,76.21
2023-02-09T18:25:37.784Z,76.56
2023-02-09T18:26:41.628Z,76.71
2023-02-09T18:27:43.491Z,77.01
2023-02-09T18:28:47.431Z,77.31
2023-02-09T18:29:52.554Z,78.09
2023-02-09T18:30:54.716Z,78.46
2023-02-09T18:32:01.629Z,79.06
2023-02-09T18:33:06.018Z,79.61
2023-02-09T18:34:10.329Z,79.77
2023-02-09T18:35:44.602Z,80.32
2023-02-09T18:36:48.228Z,80.75
2023-02-09T18:37:53.324Z,80.23
2023-02-09T18:38:56.109Z,80.49
2023-02-09T18:40:03.286Z,80.94
2023-02-09T18:41:06.018Z,80.58
2023-02-09T18:42:14.636Z,81.01
2023-02-09T18:43:19.440Z,80.81
2023-02-09T18:44:27.706Z,80.47
2023-02-09T18:45:35.591Z,79.85
2023-02-09T18:46:38.287Z,79.97
2023-02-09T18:47:40.710Z,79.71
2023-02-09T18:48:42.842Z,79.56
2023-02-09T18:49:45.536Z,79.52
2023-02-09T18:50:47.490Z,79.75
2023-02-09T18:51:53.862Z,79.82
2023-02-09T18:53:02.211Z,79.68
2023-02-09T18:54:06.074Z,79.98
2023-02-09T18:55:09.257Z,80.35
2023-02-09T18:56:22.397Z,80.42
2023-02-09T18:57:29.223Z,80.28
2023-02-09T18:58:31.982Z,80.20
2023-02-09T18:59:34.368Z,80.22
2023-02-09T19:00:39.087Z,80.27
2023-02-09T19:01:42.100Z,80.34
2023-02-09T19:02:48.082Z,79.94
2023-02-09T19:03:55.671Z,79.93
2023-02-09T19:04:58.376Z,79.53
2023-02-09T19:06:01.767Z,79.54
2023-02-09T19:07:04.250Z,79.58
2023-02-09T19:08:07.538Z,79.28
2023-02-09T19:09:14.908Z,79.05
2023-02-09T19:10:19.991Z,78.58
2023-02-09T19:11:25.091Z,78.50
2023-02-09T19:12:28.957Z,79.02
2023-02-09T19:13:34.077Z,78.57
2023-02-09T19:14:42.609Z,78.20
2023-02-09T19:15:48.146Z,79.13
2023-02-09T19:16:50.400Z,78.87
2023-02-09T19:17:56.735Z,79.29
2023-02-09T19:18:59.271Z,79.89
2023-02-09T19:20:05.018Z,80.71
2023-02-09T19:21:13.656Z,80.68
2023-02-09T19:22:18.371Z,81.01
2023-02-09T19:23:20.372Z,81.21
2023-02-09T19:24:24.604Z,81.71
2023-02-09T19:25:30.525Z,81.99
2023-02-09T19:26:38.171Z,82.38
2023-02-09T19:27:44.545Z,82.92
2023-02-09T19:28:48.369Z,82.63
2023-02-09T19:29:57.402Z,81.82
2023-02-09T19:30:59.866Z,81.75
2023-02-09T19:32:03.006Z,81.73
2023-02-09T19:33:05.113Z,81.66
2023-02-09T19:34:06.909Z,81.27
2023-02-09T19:35:09.086Z,81.22
2023-02-09T19:36:12.835Z,81.57
2023-02-09T19:37:15.480Z,81.57
2023-02-09T19:38:17.381Z,81.54
2023-02-09T19:39:20.256Z,81.19
2023-02-09T19:40:35.960Z,81.46
2023-02-09T19:41:38.127Z,81.29
2023-02-09T19:42:39.862Z,81.67
2023-02-09T19:43:42.032Z,81.54
2023-02-09T19:44:43.962Z,81.29
2023-02-09T19:45:48.069Z,81.20
2023-02-09T19:46:50.731Z,81.93
2023-02-09T19:47:53.067Z,82.46
2023-02-09T19:48:55.200Z,83.08
2023-02-09T19:50:00.865Z,82.72
2023-02-09T19:51:02.956Z,82.82
2023-02-09T19:52:06.051Z,82.86
2023-02-09T19:53:08.327Z,82.70
2023-02-09T19:54:10.486Z,82.85
2023-02-09T19:55:15.107Z,83.21
2023-02-09T19:56:23.816Z,83.38
2023-02-09T19:57:27.269Z,83.24
2023-02-09T19:58:29.391Z,82.94
2023-02-09T19:59:36.800Z,82.49
2023-02-09T20:00:39.990Z,82.62
2023-02-09T20:01:42.365Z,82.81
2023-02-09T20:02:46.567Z,82.66
2023-02-09T20:03:50.293Z,82.32
2023-02-09T20:04:52.936Z,82.41
2023-02-09T20:05:56.152Z,82.69
2023-02-09T20:06:57.993Z,82.69
2023-02-09T20:07:59.844Z,83.27
2023-02-09T20:09:02.257Z,82.80
2023-02-09T20:10:05.157Z,83.26
2023-02-09T20:11:09.291Z,83.59
2023-02-09T20:12:11.963Z,84.21
2023-02-09T20:13:16.617Z,84.77
2023-02-09T20:14:19.265Z,84.89
2023-02-09T20:15:21.787Z,86.02
2023-02-09T20:16:26.035Z,85.86
2023-02-09T20:17:28.282Z,85.84
2023-02-09T20:18:30.964Z,85.60
2023-02-09T20:19:37.797Z,85.51
2023-02-09T20:20:42.843Z,84.86
2023-02-09T20:21:46.607Z,85.24
2023-02-09T20:22:51.974Z,85.42
2023-02-09T20:23:56.225Z,85.78
2023-02-09T20:24:58.077Z,85.91
2023-02-09T20:26:00.113Z,86.46
2023-02-09T20:27:01.895Z,86.18
2023-02-09T20:28:05.126Z,86.08
2023-02-09T20:29:08.399Z,86.18
2023-02-09T20:30:11.440Z,86.57
2023-02-09T20:31:21.775Z,86.57
2023-02-09T20:32:23.714Z,86.41
2023-02-09T20:33:27.047Z,86.81
2023-02-09T20:34:32.061Z,86.59
2023-02-09T20:35:33.997Z,87.53
2023-02-09T20:36:41.852Z,88.29
2023-02-09T20:37:44.823Z,87.81
2023-02-09T20:38:47.100Z,88.22
2023-02-09T20:39:49.116Z,88.82
2023-02-09T20:40:50.773Z,89.20
2023-02-09T20:42:19.560Z,90.49
2023-02-09T20:43:39.985Z,89.90
2023-02-09T20:45:01.312Z,89.97
2023-02-09T20:46:26.516Z,89.47
2023-02-09T20:47:30.318Z,89.18
2023-02-09T20:48:32.694Z,88.61
2023-02-09T20:49:39.623Z,88.35
2023-02-09T20:50:41.393Z,88.40
2023-02-09T20:51:44.769Z,88.19
2023-02-09T20:52:46.689Z,88.54
2023-02-09T20:53:49.742Z,88.69
2023-02-09T20:54:51.775Z,90.00
2023-02-09T20:55:54.866Z,89.42
2023-02-09T20:56:56.819Z,89.87
2023-02-09T20:57:58.647Z,90.42
2023-02-09T20:59:01.869Z,90.05
2023-02-09T21:00:09.519Z,89.71
2023-02-09T21:01:12.053Z,89.75
2023-02-09T21:02:17.008Z,89.47
2023-02-09T21:03:21.339Z,89.31
2023-02-09T21:04:23.801Z,89.09
2023-02-09T21:05:25.587Z,89.61
2023-02-09T21:06:30.028Z,90.51
2023-02-09T21:07:34.641Z,92.01
2023-02-09T21:08:40.732Z,92.35
2023-02-09T21:09:42.768Z,92.12
2023-02-09T21:10:44.883Z,92.37
2023-02-09T21:11:49.621Z,91.84
2023-02-09T21:12:53.874Z,90.58
2023-02-09T21:13:55.933Z,90.26
2023-02-09T21:14:59.517Z,89.38
2023-02-09T21:16:03.242Z,89.01
2023-02-09T21:17:06.984Z,88.20
2023-02-09T21:18:11.681Z,87.84
2023-02-09T21:19:14.634Z,87.26
2023-02-09T21:20:17.099Z,87.00
2023-02-09T21:21:19.833Z,86.87
2023-02-09T21:22:22.776Z,86.66
2023-02-09T21:23:24.507Z,86.65
2023-02-09T21:24:27.311Z,86.44
2023-02-09T21:25:29.981Z,86.86
2023-02-09T21:26:31.908Z,87.36
2023-02-09T21:27:34.486Z,87.05
2023-02-09T21:28:36.857Z,87.09
2023-02-09T21:29:40.059Z,87.19
2023-02-09T21:30:44.631Z,87.41
2023-02-09T21:31:49.393Z,87.22
2023-02-09T21:32:51.321Z,86.75
2023-02-09T21:33:54.946Z,86.55
2023-02-09T21:34:57.793Z,86.41
2023-02-09T21:35:59.446Z,86.64
2023-02-09T21:37:03.538Z,87.14
2023-02-09T21:38:05.936Z,87.67
2023-02-09T21:39:10.436Z,87.87
2023-02-09T21:40:13.492Z,87.65
2023-02-09T21:41:41.963Z,87.49
2023-02-09T21:42:45.872Z,87.87
2023-02-09T21:43:47.838Z,88.09
2023-02-09T21:44:54.091Z,88.81
2023-02-09T21:45:57.054Z,89.49
2023-02-09T21:47:00.551Z,89.54
2023-02-09T21:48:02.720Z,89.25
2023-02-09T21:49:06.570Z,89.08
2023-02-09T21:50:12.853Z,90.08
2023-02-09T21:51:18.197Z,89.41
2023-02-09T21:52:20.129Z,89.44
2023-02-09T21:53:21.807Z,88.74
2023-02-09T21:54:26.214Z,88.96
2023-02-09T21:55:31.263Z,89.25
2023-02-09T21:56:33.223Z,88.83
2023-02-09T21:57:36.231Z,88.52
2023-02-09T21:58:37.969Z,88.08
2023-02-09T21:59:39.680Z,87.59
2023-02-09T22:00:43.214Z,87.72
2023-02-09T22:01:44.998Z,88.38
2023-02-09T22:02:53.259Z,88.51
2023-02-09T22:03:59.821Z,89.35
2023-02-09T22:05:05.325Z,89.18
2023-02-09T22:06:07.310Z,89.12
2023-02-09T22:07:11.032Z,89.65
2023-02-09T22:08:15.767Z,89.42
2023-02-09T22:09:20.363Z,89.60
2023-02-09T22:10:22.838Z,88.95
2023-02-09T22:11:27.048Z,88.71
2023-02-09T22:12:29.137Z,88.49
2023-02-09T22:13:31.693Z,89.26
2023-02-09T22:14:33.616Z,89.21
2023-02-09T22:15:35.684Z,89.93
2023-02-09T22:16:38.730Z,89.85
2023-02-09T22:17:40.617Z,90.14
2023-02-09T22:18:45.504Z,90.37
2023-02-09T22:19:48.589Z,90.35
2023-02-09T22:20:51.200Z,90.41
2023-02-09T22:21:53.028Z,92.16
2023-02-09T22:22:55.039Z,92.36
2023-02-09T22:23:58.672Z,92.82
2023-02-09T22:25:00.377Z,93.03
2023-02-09T22:26:05.905Z,93.66
2023-02-09T22:27:07.859Z,93.48
2023-02-09T22:28:09.629Z,93.76
2023-02-09T22:29:13.483Z,94.86
2023-02-09T22:30:18.835Z,95.07
2023-02-09T22:31:21.861Z,94.73
2023-02-09T22:32:25.118Z,95.03
2023-02-09T22:33:29.859Z,95.07
2023-02-09T22:34:31.776Z,95.46
2023-02-09T22:35:33.487Z,94.85
2023-02-09T22:36:36.592Z,94.98
2023-02-09T22:37:40.157Z,95.17
2023-02-09T22:38:44.629Z,95.15
2023-02-09T22:39:47.651Z,95.73
2023-02-09T22:40:49.911Z,95.61
2023-02-09T22:41:51.805Z,95.23
2023-02-09T22:42:53.874Z,94.83
2023-02-09T22:43:58.608Z,94.51
2023-02-09T22:45:00.991Z,94.49
2023-02-09T22:46:03.185Z,96.03
2023-02-09T22:47:04.948Z,96.91
2023-02-09T22:48:07.028Z,96.62
2023-02-09T22:49:18.217Z,96.10
2023-02-09T22:50:20.868Z,95.75
2023-02-09T22:51:24.147Z,96.38
2023-02-09T22:52:28.919Z,96.60
2023-02-09T22:53:30.819Z,96.48
2023-02-09T22:55:00.254Z,96.82
2023-02-09T22:56:09.384Z,98.20
2023-02-09T22:57:11.218Z,98.66
2023-02-09T22:58:12.794Z,98.30
2023-02-09T22:59:16.499Z,98.36
2023-02-09T23:00:18.699Z,98.97
2023-02-09T23:01:20.532Z,99.23
2023-02-09T23:02:26.914Z,99.07
2023-02-09T23:03:28.718Z,100.00
2023-02-09T23:04:32.949Z,100.00
2023-02-09T23:05:35.866Z,99.96
2023-02-09T23:06:37.729Z,100.00
2023-02-09T23:07:41.873Z,100.00
2023-02-09T23:08:46.786Z,100.00
2023-02-09T23:09:48.547Z,99.76
2023-02-09T23:10:51.327Z,100.00
2023-02-09T23:11:53.710Z,100.00
2023-02-09T23:12:55.471Z,99.92
2023-02-09T23:14:09.307Z,99.17
2023-02-09T23:15:12.310Z,99.75
2023-02-09T23:16:16.826Z,99.63
2023-02-09T23:17:20.242Z,100.00
2023-02-09T23:18:23.623Z,100.00
2023-02-09T23:19:25.723Z,100.00
2023-02-09T23:20:27.459Z,100.00
2023-02-09T23:21:31.714Z,100.00
2023-02-09T23:22:33.690Z,100.00
2023-02-09T23:23:36.259Z,100.00
2023-02-09T23:24:38.494Z,100.00
2023-02-09T23:25:42.997Z,100.00
2023-02-09T23:26:50.655Z,100.00
2023-02-09T23:27:53.611Z,100.00
2023-02-09T23:29:00.998Z,100.00
2023-02-09T23:30:05.028Z,100.00
2023-02-09T23:31:09.138Z,100.00
2023-02-09T23:32:10.857Z,100.00
2023-02-09T23:33:12.971Z,100.00
2023-02-09T23:34:20.591Z,100.00
2023-02-09T23:35:25.994Z,100.00
2023-02-09T23:36:31.579Z,100.00
2023-02-09T23:37:38.079Z,100.00
2023-02-09T23:38:40.236Z,100.00
2023-02-09T23:39:42.144Z,100.00
2023-02-09T23:40:44.138Z,100.00
2023-02-09T23:41:47.106Z,100.00
2023-02-09T23:42:49.112Z,100.00
2023-02-09T23:43:52.594Z,100.00
2023-02-09T23:44:54.409Z,100.00
2023-02-09T23:46:01.266Z,100.00
2023-02-09T23:47:02.907Z,100.00
2023-02-09T23:48:04.697Z,100.00
2023-02-09T23:49:09.905Z,100.00
2023-02-09T23:50:11.473Z,100.00
2023-02-09T23:51:18.367Z,100.00
2023-02-09T23:52:20.230Z,100.00
2023-02-09T23:53:24.692Z,100.00
2023-02-09T23:54:27.771Z,100.00
2023-02-09T23:55:32.467Z,100.00
2023-02-09T23:56:38.755Z,100.00
2023-02-09T23:57:40.458Z,100.00
2023-02-09T23:58:49.342Z,100.00
2023-02-09T23:59:51.513Z,100.00
